Time;durP1;ratioP1;P1;durP2;ratioP2;P2;SDS_P1;SDS_P2;PMS_P1;PMS_P2;Temp;Humidity;BMP_temperature;BMP_pressure;BME280_temperature;BME280_humidity;BME280_pressure;Samples;Min_cycle;Max_cycle;Signal;HPM_P1;HPM_P2
2023/12/09 06:02:24;;;;;;;10.67;6.70;;;;;;;;;;5094050;22;20497;-76
2023/12/09 06:04:50;;;;;;;21.83;8.83;;;;;;;;;;5013817;28;20475;-75
2023/12/09 06:07:16;;;;;;;18.97;7.63;;;;;;;;;;5013879;28;20410;-75
2023/12/09 06:09:42;;;;;;;13.40;7.33;;;;;;;;;;5013599;28;20406;-75
2023/12/09 06:12:08;;;;;;;19.00;8.17;;;;;;;;;;5013747;28;20426;-75
2023/12/09 06:14:34;;;;;;;16.90;6.80;;;;;;;;;;5013975;28;20918;-76
2023/12/09 06:17:00;;;;;;;14.57;7.07;;;;;;;;;;5013769;28;20419;-75
2023/12/09 06:19:26;;;;;;;14.67;5.90;;;;;;;;;;5013384;28;20982;-75
2023/12/09 06:21:52;;;;;;;13.90;6.77;;;;;;;;;;5013786;28;20461;-75
2023/12/09 06:24:18;;;;;;;14.30;7.30;;;;;;;;;;5028240;28;20457;-75
2023/12/09 06:26:44;;;;;;;14.03;6.73;;;;;;;;;;5031817;28;20394;-75
2023/12/09 06:29:16;;;;;;;14.23;5.97;;;;;;;;;;5022042;28;20414;-75
2023/12/09 06:31:42;;;;;;;19.43;6.60;;;;;;;;;;5013880;28;20947;-75
2023/12/09 06:34:08;;;;;;;15.30;6.90;;;;;;;;;;5013559;28;20727;-78
2023/12/09 06:36:34;;;;;;;20.53;7.97;;;;;;;;;;5013337;28;20410;-77
2023/12/09 06:39:00;;;;;;;17.30;8.53;;;;;;;;;;5011846;28;20414;-77
2023/12/09 06:41:26;;;;;;;11.70;6.90;;;;;;;;;;5013241;28;20430;-77
2023/12/09 06:43:52;;;;;;;16.10;8.53;;;;;;;;;;5012965;28;20407;-77
2023/12/09 06:46:18;;;;;;;13.20;7.03;;;;;;;;;;5013502;28;20425;-74
2023/12/09 06:48:45;;;;;;;19.30;8.37;;;;;;;;;;5012983;28;20445;-75
2023/12/09 06:51:17;;;;;;;22.97;7.47;;;;;;;;;;5012019;28;20442;-76
2023/12/09 06:53:43;;;;;;;19.83;8.37;;;;;;;;;;5012811;28;20757;-76
2023/12/09 06:56:18;;;;;;;14.87;7.27;;;;;;;;;;5014845;28;20464;-75
2023/12/09 06:58:44;;;;;;;19.10;7.33;;;;;;;;;;5018648;28;20417;-75
2023/12/09 07:01:18;;;;;;;14.30;7.23;;;;;;;;;;5015509;28;20807;-76
2023/12/09 07:03:44;;;;;;;22.73;6.50;;;;;;;;;;5013109;28;20422;-76
2023/12/09 07:06:10;;;;;;;14.97;6.40;;;;;;;;;;5011678;28;20474;-76
2023/12/09 07:08:36;;;;;;;10.10;6.17;;;;;;;;;;5012804;28;20459;-76
2023/12/09 07:11:02;;;;;;;18.50;6.57;;;;;;;;;;5012708;28;20425;-76
2023/12/09 07:13:28;;;;;;;15.60;6.70;;;;;;;;;;5011728;28;20934;-76
2023/12/09 07:15:54;;;;;;;10.63;5.40;;;;;;;;;;5011777;28;20463;-75
2023/12/09 07:18:20;;;;;;;10.80;5.73;;;;;;;;;;5012784;28;20418;-76
2023/12/09 07:20:46;;;;;;;9.13;5.20;;;;;;;;;;5011679;28;20449;-76
2023/12/09 07:23:14;;;;;;;11.50;5.93;;;;;;;;;;5012600;28;20497;-76
2023/12/09 07:25:40;;;;;;;11.83;5.23;;;;;;;;;;5011356;28;20524;-75
2023/12/09 07:28:06;;;;;;;14.00;5.07;;;;;;;;;;5011602;28;20410;-76
2023/12/09 07:30:32;;;;;;;9.73;5.43;;;;;;;;;;5012668;28;20456;-75
2023/12/09 07:32:58;;;;;;;13.80;5.40;;;;;;;;;;5012657;28;20497;-75
2023/12/09 07:35:24;;;;;;;8.30;5.20;;;;;;;;;;5012629;28;20428;-76
2023/12/09 07:37:50;;;;;;;11.53;5.63;;;;;;;;;;5012886;28;20452;-76
2023/12/09 07:40:16;;;;;;;10.07;5.30;;;;;;;;;;5012359;28;20449;-75
2023/12/09 07:42:42;;;;;;;10.30;4.80;;;;;;;;;;5016469;28;20430;-75
2023/12/09 07:45:08;;;;;;;17.60;5.80;;;;;;;;;;5014167;28;20465;-75
2023/12/09 07:47:34;;;;;;;9.40;5.60;;;;;;;;;;5013985;28;20414;-76
2023/12/09 07:50:00;;;;;;;11.07;5.80;;;;;;;;;;5011233;28;21004;-77
2023/12/09 07:52:26;;;;;;;10.10;4.87;;;;;;;;;;5012254;28;20430;-77
2023/12/09 07:54:52;;;;;;;8.43;5.07;;;;;;;;;;5012588;28;20425;-77
2023/12/09 07:57:18;;;;;;;9.50;4.87;;;;;;;;;;5012547;28;20425;-77
2023/12/09 07:59:44;;;;;;;9.07;4.97;;;;;;;;;;5010859;28;20565;-75
2023/12/09 08:02:10;;;;;;;7.17;4.73;;;;;;;;;;5012063;28;20980;-75
2023/12/09 08:04:36;;;;;;;10.43;5.60;;;;;;;;;;5010788;28;20988;-76
2023/12/09 08:07:02;;;;;;;9.50;4.90;;;;;;;;;;5011972;28;20406;-76
2023/12/09 08:09:28;;;;;;;13.27;6.50;;;;;;;;;;5011941;28;20835;-75
2023/12/09 08:11:54;;;;;;;17.37;5.80;;;;;;;;;;5012828;28;20421;-76
2023/12/09 08:14:20;;;;;;;22.23;5.90;;;;;;;;;;5012008;28;20409;-76
2023/12/09 08:16:45;;;;;;;10.83;6.23;;;;;;;;;;5012007;28;20405;-76
2023/12/09 08:19:13;;;;;;;11.90;5.70;;;;;;;;;;5010348;28;20983;-76
2023/12/09 08:21:40;;;;;;;12.10;6.40;;;;;;;;;;5011976;28;20441;-75
2023/12/09 08:24:07;;;;;;;13.87;5.80;;;;;;;;;;5012059;28;20449;-76
2023/12/09 08:26:33;;;;;;;8.60;5.40;;;;;;;;;;5012036;28;20505;-77
2023/12/09 08:29:00;;;;;;;12.70;6.00;;;;;;;;;;5010444;28;20425;-77
2023/12/09 08:31:26;;;;;;;8.23;5.17;;;;;;;;;;5011902;28;20866;-75
2023/12/09 08:33:52;;;;;;;10.83;5.40;;;;;;;;;;5010360;28;20414;-77
2023/12/09 08:36:18;;;;;;;15.53;6.00;;;;;;;;;;5011742;28;20479;-73
2023/12/09 08:38:44;;;;;;;8.20;5.13;;;;;;;;;;5011695;28;20515;-75
2023/12/09 08:41:10;;;;;;;9.40;5.70;;;;;;;;;;5011804;28;20434;-80
2023/12/09 08:43:36;;;;;;;10.10;5.90;;;;;;;;;;5011499;28;20402;-75
2023/12/09 08:46:02;;;;;;;12.87;5.30;;;;;;;;;;5011552;28;20544;-76
2023/12/09 08:48:28;;;;;;;8.60;5.70;;;;;;;;;;5011403;28;20408;-76
2023/12/09 08:50:54;;;;;;;11.87;4.83;;;;;;;;;;5010014;28;20438;-76
2023/12/09 08:53:20;;;;;;;16.33;6.10;;;;;;;;;;5011468;28;20630;-76
2023/12/09 08:55:46;;;;;;;18.83;6.27;;;;;;;;;;5011354;28;20508;-76
2023/12/09 08:58:11;;;;;;;15.57;6.43;;;;;;;;;;5011561;28;20437;-76
2023/12/09 09:00:37;;;;;;;14.30;4.83;;;;;;;;;;5011582;28;20544;-77
2023/12/09 09:03:03;;;;;;;9.90;5.90;;;;;;;;;;5010431;28;20422;-75
2023/12/09 09:05:29;;;;;;;9.53;6.10;;;;;;;;;;5014779;28;20891;-77
2023/12/09 09:07:55;;;;;;;15.27;5.90;;;;;;;;;;5015326;28;20406;-74
2023/12/09 09:10:22;;;;;;;14.63;6.03;;;;;;;;;;5013357;28;20417;-76
2023/12/09 09:12:48;;;;;;;11.53;6.37;;;;;;;;;;5015022;28;20410;-76
2023/12/09 09:15:16;;;;;;;11.67;6.60;;;;;;;;;;5014899;28;20441;-77
2023/12/09 09:17:42;;;;;;;10.73;6.40;;;;;;;;;;5013507;28;20414;-77
2023/12/09 09:20:08;;;;;;;14.23;7.13;;;;;;;;;;5014732;28;20484;-77
2023/12/09 09:22:35;;;;;;;11.50;6.63;;;;;;;;;;5014702;28;20489;-76
2023/12/09 09:25:01;;;;;;;11.97;5.63;;;;;;;;;;5014676;28;20588;-76
2023/12/09 09:27:28;;;;;;;12.23;6.23;;;;;;;;;;5014590;28;20877;-76
2023/12/09 09:29:54;;;;;;;12.83;6.07;;;;;;;;;;5013429;28;20423;-75
2023/12/09 09:32:21;;;;;;;12.63;5.90;;;;;;;;;;5015691;28;20624;-75
2023/12/09 09:34:47;;;;;;;11.90;6.20;;;;;;;;;;5014113;28;20425;-75
2023/12/09 09:37:12;;;;;;;9.93;5.80;;;;;;;;;;5014303;28;20414;-76
2023/12/09 09:39:38;;;;;;;14.80;6.07;;;;;;;;;;5014159;28;20424;-76
2023/12/09 09:42:18;;;;;;;11.60;6.00;;;;;;;;;;5014243;28;20473;-75
2023/12/09 09:44:50;;;;;;;10.23;5.60;;;;;;;;;;5013913;28;20446;-76
2023/12/09 09:47:17;;;;;;;11.63;5.53;;;;;;;;;;5014577;28;20402;-76
2023/12/09 09:49:45;;;;;;;10.73;5.87;;;;;;;;;;5012978;28;20452;-76
2023/12/09 09:52:13;;;;;;;12.33;6.50;;;;;;;;;;5013983;28;20441;-77
2023/12/09 09:54:39;;;;;;;13.20;6.17;;;;;;;;;;5013263;28;20862;-75
2023/12/09 09:57:07;;;;;;;12.80;5.60;;;;;;;;;;5014094;28;20487;-76
2023/12/09 09:59:33;;;;;;;15.90;6.53;;;;;;;;;;5014038;28;20983;-76
2023/12/09 10:02:00;;;;;;;13.23;6.60;;;;;;;;;;5012633;28;20470;-75
2023/12/09 10:04:26;;;;;;;17.00;6.33;;;;;;;;;;5013828;28;20454;-77
2023/12/09 10:06:53;;;;;;;9.93;6.03;;;;;;;;;;5013890;28;20414;-77
2023/12/09 10:09:19;;;;;;;11.70;6.20;;;;;;;;;;5013734;28;20773;-75
2023/12/09 10:11:45;;;;;;;11.80;6.77;;;;;;;;;;5013722;28;20430;-75
2023/12/09 10:14:11;;;;;;;10.63;5.83;;;;;;;;;;5022530;28;20410;-77
2023/12/09 10:16:38;;;;;;;13.20;6.70;;;;;;;;;;5019127;28;20464;-77
2023/12/09 10:19:08;;;;;;;9.77;6.43;;;;;;;;;;5017996;28;20414;-76
2023/12/09 10:21:34;;;;;;;8.33;5.30;;;;;;;;;;5018138;28;20723;-76
2023/12/09 10:24:00;;;;;;;18.13;6.00;;;;;;;;;;5018891;28;20441;-78
2023/12/09 10:26:26;;;;;;;12.13;6.13;;;;;;;;;;5017408;28;20406;-77
2023/12/09 10:28:52;;;;;;;12.20;6.20;;;;;;;;;;5016565;28;20562;-76
2023/12/09 10:31:18;;;;;;;8.83;5.73;;;;;;;;;;5018461;28;20441;-76
2023/12/09 10:33:45;;;;;;;12.10;6.60;;;;;;;;;;5017998;28;20437;-77
2023/12/09 10:36:11;;;;;;;14.00;6.63;;;;;;;;;;5018277;28;20482;-78
2023/12/09 10:38:46;;;;;;;12.03;6.43;;;;;;;;;;5017528;28;20473;-77
2023/12/09 10:41:16;;;;;;;11.07;5.57;;;;;;;;;;5018453;28;20525;-78
2023/12/09 10:43:42;;;;;;;8.20;5.03;;;;;;;;;;5018146;28;20414;-78
2023/12/09 10:46:10;;;;;;;11.93;6.40;;;;;;;;;;5018646;28;20623;-77
2023/12/09 10:48:37;;;;;;;12.00;5.73;;;;;;;;;;5017984;28;20410;-77
2023/12/09 10:51:03;;;;;;;10.40;5.10;;;;;;;;;;5018101;28;20430;-78
2023/12/09 10:53:29;;;;;;;8.93;5.57;;;;;;;;;;5018230;28;20501;-77
2023/12/09 10:55:55;;;;;;;13.23;6.97;;;;;;;;;;5018357;28;20910;-77
2023/12/09 10:58:22;;;;;;;11.43;6.07;;;;;;;;;;5016548;28;20488;-77
2023/12/09 11:00:48;;;;;;;14.43;5.80;;;;;;;;;;5015766;28;20500;-77
2023/12/09 11:03:14;;;;;;;10.87;6.00;;;;;;;;;;5026052;28;20593;-76
2023/12/09 11:05:44;;;;;;;7.97;5.23;;;;;;;;;;5035302;28;20480;-77
2023/12/09 11:08:11;;;;;;;12.53;5.77;;;;;;;;;;5035117;28;20414;-77
2023/12/09 11:10:37;;;;;;;10.70;5.23;;;;;;;;;;5021530;28;20509;-77
2023/12/09 11:13:03;;;;;;;9.67;5.40;;;;;;;;;;5018507;28;20744;-78
2023/12/09 11:15:32;;;;;;;16.10;5.83;;;;;;;;;;5017465;28;20478;-77
2023/12/09 11:18:10;;;;;;;12.23;5.90;;;;;;;;;;5012599;28;20406;-77
2023/12/09 11:20:38;;;;;;;7.13;5.10;;;;;;;;;;5012458;28;20442;-76
2023/12/09 11:23:04;;;;;;;7.43;4.90;;;;;;;;;;5010867;28;21014;-76
2023/12/09 11:25:30;;;;;;;9.67;5.07;;;;;;;;;;5012854;28;20461;-77
2023/12/09 11:27:58;;;;;;;7.83;5.27;;;;;;;;;;5011521;28;20414;-76
2023/12/09 11:30:31;;;;;;;6.00;4.67;;;;;;;;;;5012536;28;20842;-76
2023/12/09 11:32:57;;;;;;;11.90;5.37;;;;;;;;;;5011162;28;20414;-78
2023/12/09 11:35:25;;;;;;;7.67;5.27;;;;;;;;;;5012851;28;20410;-76
2023/12/09 11:37:51;;;;;;;7.97;6.03;;;;;;;;;;5012778;28;20406;-76
2023/12/09 11:40:18;;;;;;;8.37;4.80;;;;;;;;;;5012220;28;20414;-78
2023/12/09 11:42:45;;;;;;;9.60;5.40;;;;;;;;;;5011968;28;20942;-76
2023/12/09 11:45:11;;;;;;;7.83;4.77;;;;;;;;;;5011561;28;20972;-76
2023/12/09 11:47:39;;;;;;;9.87;6.17;;;;;;;;;;5012915;28;20469;-76
2023/12/09 11:50:06;;;;;;;13.43;5.90;;;;;;;;;;5013172;28;20460;-76
2023/12/09 11:52:32;;;;;;;11.00;5.70;;;;;;;;;;5013065;28;20839;-75
2023/12/09 11:54:59;;;;;;;8.57;5.30;;;;;;;;;;5012282;28;20410;-77
2023/12/09 11:57:27;;;;;;;11.47;5.87;;;;;;;;;;5011481;28;20839;-77
2023/12/09 11:59:54;;;;;;;7.67;5.60;;;;;;;;;;5012101;28;20967;-75
2023/12/09 12:02:20;;;;;;;12.47;5.97;;;;;;;;;;5010989;28;20948;-76
2023/12/09 12:04:46;;;;;;;11.10;6.27;;;;;;;;;;5012204;28;20461;-76
2023/12/09 12:07:12;;;;;;;9.90;5.47;;;;;;;;;;5012053;28;20410;-78
2023/12/09 12:09:38;;;;;;;14.43;6.27;;;;;;;;;;5010630;28;20418;-76
2023/12/09 12:12:05;;;;;;;9.27;6.43;;;;;;;;;;5011726;28;20955;-76
2023/12/09 12:14:32;;;;;;;12.97;5.60;;;;;;;;;;5013708;28;20464;-79
2023/12/09 12:16:58;;;;;;;10.20;5.40;;;;;;;;;;5015276;28;20788;-79
2023/12/09 12:19:24;;;;;;;10.63;4.80;;;;;;;;;;5015218;28;20432;-79
2023/12/09 12:21:54;;;;;;;8.00;4.73;;;;;;;;;;5016169;28;20438;-79
2023/12/09 12:24:20;;;;;;;9.70;5.00;;;;;;;;;;5014542;28;20791;-79
2023/12/09 12:26:46;;;;;;;6.60;4.40;;;;;;;;;;5016478;28;20434;-79
2023/12/09 12:29:17;;;;;;;7.70;3.97;;;;;;;;;;5016209;28;20781;-78
2023/12/09 12:31:43;;;;;;;5.80;3.67;;;;;;;;;;5016064;28;20484;-79
2023/12/09 12:34:17;;;;;;;5.90;3.87;;;;;;;;;;5015798;28;20414;-79
2023/12/09 12:36:43;;;;;;;9.57;4.60;;;;;;;;;;5015784;28;20449;-79
2023/12/09 12:39:09;;;;;;;3.63;3.00;;;;;;;;;;5019743;28;20409;-79
2023/12/09 12:41:35;;;;;;;5.13;3.33;;;;;;;;;;5018915;28;20421;-79
2023/12/09 12:44:01;;;;;;;7.17;3.80;;;;;;;;;;5024953;28;20418;-78
2023/12/09 12:46:27;;;;;;;5.23;2.80;;;;;;;;;;5029505;28;20488;-79
2023/12/09 12:48:54;;;;;;;5.50;3.33;;;;;;;;;;5019957;28;20820;-79
2023/12/09 12:51:19;;;;;;;3.00;2.70;;;;;;;;;;5019704;28;20442;-79
2023/12/09 12:53:46;;;;;;;3.10;2.57;;;;;;;;;;5020885;28;20432;-78
2023/12/09 12:56:12;;;;;;;3.40;3.20;;;;;;;;;;5018197;28;20417;-79
2023/12/09 12:58:39;;;;;;;4.33;2.80;;;;;;;;;;5018152;28;20492;-79
2023/12/09 13:01:05;;;;;;;3.87;2.80;;;;;;;;;;5017007;28;20474;-79
2023/12/09 13:03:32;;;;;;;4.87;3.00;;;;;;;;;;5018541;28;20410;-79
2023/12/09 13:05:58;;;;;;;4.00;2.53;;;;;;;;;;5017598;28;20504;-80
2023/12/09 13:08:26;;;;;;;4.27;2.60;;;;;;;;;;5019102;28;20492;-79
2023/12/09 13:10:52;;;;;;;6.30;3.00;;;;;;;;;;5017749;28;20437;-79
2023/12/09 13:13:18;;;;;;;4.00;3.03;;;;;;;;;;5019393;28;20406;-79
2023/12/09 13:15:44;;;;;;;8.63;4.67;;;;;;;;;;5018820;28;20475;-78
2023/12/09 13:18:13;;;;;;;4.23;3.40;;;;;;;;;;5017677;28;21063;-79
2023/12/09 13:20:41;;;;;;;4.33;3.17;;;;;;;;;;5016814;28;20521;-78
2023/12/09 13:23:07;;;;;;;3.53;2.70;;;;;;;;;;5017645;28;20956;-79
2023/12/09 13:25:33;;;;;;;4.30;3.33;;;;;;;;;;5018049;28;20462;-79
2023/12/09 13:27:59;;;;;;;4.97;2.97;;;;;;;;;;5017268;28;20414;-79
2023/12/09 13:30:28;;;;;;;5.13;3.00;;;;;;;;;;5017285;28;20418;-78
2023/12/09 13:33:00;;;;;;;8.23;3.30;;;;;;;;;;5016979;28;20456;-78
2023/12/09 13:35:26;;;;;;;4.47;3.13;;;;;;;;;;5016182;28;20797;-78
2023/12/09 13:37:52;;;;;;;14.67;5.23;;;;;;;;;;5017430;28;20893;-77
2023/12/09 13:40:18;;;;;;;5.83;4.07;;;;;;;;;;5017844;28;20422;-78
2023/12/09 13:42:44;;;;;;;5.93;3.43;;;;;;;;;;5019054;28;20424;-77
2023/12/09 13:45:10;;;;;;;3.40;2.67;;;;;;;;;;5019630;28;20970;-78
2023/12/09 13:47:36;;;;;;;5.40;2.97;;;;;;;;;;5017746;28;20410;-77
2023/12/09 13:50:04;;;;;;;5.10;2.77;;;;;;;;;;5016151;28;20437;-77
2023/12/09 13:52:31;;;;;;;5.63;3.47;;;;;;;;;;5017484;28;20671;-77
2023/12/09 13:54:58;;;;;;;7.60;3.70;;;;;;;;;;5017363;28;20428;-76
2023/12/09 13:57:24;;;;;;;6.20;3.07;;;;;;;;;;5023951;28;20421;-77
2023/12/09 13:59:50;;;;;;;3.77;2.47;;;;;;;;;;5031009;28;20473;-77
2023/12/09 14:02:17;;;;;;;8.70;2.63;;;;;;;;;;5023451;28;20536;-77
2023/12/09 14:04:43;;;;;;;6.03;3.10;;;;;;;;;;5018341;28;20466;-77
2023/12/09 14:07:09;;;;;;;10.23;3.43;;;;;;;;;;5019404;28;20445;-78
2023/12/09 14:09:35;;;;;;;3.97;3.20;;;;;;;;;;5032644;28;20437;-77
2023/12/09 14:12:01;;;;;;;6.40;4.00;;;;;;;;;;5025398;28;20434;-77
2023/12/09 14:14:27;;;;;;;5.47;2.60;;;;;;;;;;5019236;28;20968;-77
2023/12/09 14:16:53;;;;;;;3.30;2.70;;;;;;;;;;5017511;28;20929;-78
2023/12/09 14:19:20;;;;;;;5.63;3.47;;;;;;;;;;5018873;28;20418;-78
2023/12/09 14:21:46;;;;;;;5.27;2.83;;;;;;;;;;5017670;28;20456;-78
2023/12/09 14:24:11;;;;;;;3.67;2.80;;;;;;;;;;5017977;28;20422;-78
2023/12/09 14:26:38;;;;;;;5.60;3.17;;;;;;;;;;5017597;28;20468;-78
2023/12/09 14:29:04;;;;;;;4.87;2.63;;;;;;;;;;5017338;28;20410;-77
2023/12/09 14:31:30;;;;;;;4.17;3.07;;;;;;;;;;5019521;28;20434;-77
2023/12/09 14:33:56;;;;;;;5.87;3.60;;;;;;;;;;5018813;28;20568;-78
2023/12/09 14:36:22;;;;;;;4.80;3.53;;;;;;;;;;5022997;28;20402;-77
2023/12/09 14:38:48;;;;;;;6.40;3.90;;;;;;;;;;5018861;28;20951;-78
2023/12/09 14:41:14;;;;;;;6.03;3.50;;;;;;;;;;5016868;28;20464;-78
2023/12/09 14:43:40;;;;;;;7.63;3.87;;;;;;;;;;5016072;28;20410;-77
2023/12/09 14:46:06;;;;;;;6.90;3.90;;;;;;;;;;5018448;28;20472;-78
2023/12/09 14:48:32;;;;;;;7.83;4.80;;;;;;;;;;5020428;28;20426;-78
2023/12/09 14:50:58;;;;;;;5.40;3.20;;;;;;;;;;5019553;28;20484;-78
2023/12/09 14:53:24;;;;;;;9.97;4.07;;;;;;;;;;5018955;28;20410;-78
2023/12/09 14:55:53;;;;;;;7.50;4.00;;;;;;;;;;5019423;28;20437;-77
2023/12/09 14:58:19;;;;;;;7.03;4.43;;;;;;;;;;5022936;28;20948;-78
2023/12/09 15:00:47;;;;;;;6.87;4.40;;;;;;;;;;5022322;28;20453;-77
2023/12/09 15:03:13;;;;;;;11.13;5.63;;;;;;;;;;5022322;28;20414;-76
2023/12/09 15:05:39;;;;;;;7.13;4.20;;;;;;;;;;5017391;28;20863;-78
2023/12/09 15:08:05;;;;;;;5.30;3.83;;;;;;;;;;5019054;28;20492;-77
2023/12/09 15:10:31;;;;;;;11.00;4.17;;;;;;;;;;5029663;28;20433;-77
2023/12/09 15:12:57;;;;;;;6.07;3.57;;;;;;;;;;5032131;28;20429;-77
2023/12/09 15:15:23;;;;;;;6.63;4.20;;;;;;;;;;5031502;28;20402;-76
2023/12/09 15:17:49;;;;;;;6.20;3.60;;;;;;;;;;5031043;28;20418;-76
2023/12/09 15:20:15;;;;;;;6.97;4.30;;;;;;;;;;5027011;28;20834;-77
2023/12/09 15:22:41;;;;;;;7.40;4.47;;;;;;;;;;5015930;28;20418;-76
2023/12/09 15:25:08;;;;;;;5.90;4.10;;;;;;;;;;5016583;28;20471;-78
2023/12/09 15:27:34;;;;;;;9.23;4.70;;;;;;;;;;5017461;28;20401;-77
2023/12/09 15:30:03;;;;;;;7.17;4.10;;;;;;;;;;5017248;28;20437;-76
2023/12/09 15:32:29;;;;;;;9.67;4.40;;;;;;;;;;5015822;28;20446;-77
2023/12/09 15:34:55;;;;;;;7.90;4.13;;;;;;;;;;5017675;28;20432;-77
2023/12/09 15:37:21;;;;;;;8.83;3.90;;;;;;;;;;5017280;28;20496;-77
2023/12/09 15:39:47;;;;;;;8.30;4.80;;;;;;;;;;5013790;28;20430;-77
2023/12/09 15:42:13;;;;;;;10.63;5.47;;;;;;;;;;5013759;28;20438;-75
2023/12/09 15:44:39;;;;;;;8.03;3.50;;;;;;;;;;5012178;28;20492;-75
2023/12/09 15:47:06;;;;;;;7.50;3.80;;;;;;;;;;5031818;28;20406;-75
2023/12/09 15:49:32;;;;;;;16.23;4.83;;;;;;;;;;5032726;28;20414;-74
2023/12/09 15:51:58;;;;;;;6.97;4.30;;;;;;;;;;5025195;28;20507;-76
2023/12/09 15:54:24;;;;;;;8.53;4.83;;;;;;;;;;5016586;28;20948;-76
2023/12/09 15:56:50;;;;;;;9.30;5.00;;;;;;;;;;5011943;28;20618;-76
2023/12/09 15:59:16;;;;;;;9.30;5.83;;;;;;;;;;5013916;28;20501;-76
2023/12/09 16:01:42;;;;;;;9.10;5.80;;;;;;;;;;5013584;28;20950;-76
2023/12/09 16:04:08;;;;;;;10.90;6.27;;;;;;;;;;5012632;28;20426;-76
2023/12/09 16:06:34;;;;;;;11.03;5.20;;;;;;;;;;5017545;28;20550;-76
2023/12/09 16:09:00;;;;;;;8.47;5.10;;;;;;;;;;5020603;28;20406;-76
2023/12/09 16:11:26;;;;;;;14.70;5.80;;;;;;;;;;5015938;28;20438;-77
2023/12/09 16:13:52;;;;;;;6.73;4.83;;;;;;;;;;5014897;28;20413;-77
2023/12/09 16:16:19;;;;;;;12.97;5.77;;;;;;;;;;5017599;28;20413;-77
2023/12/09 16:18:45;;;;;;;7.83;5.07;;;;;;;;;;5027403;28;20429;-78
2023/12/09 16:21:18;;;;;;;10.00;6.17;;;;;;;;;;5025020;28;20434;-76
2023/12/09 16:23:44;;;;;;;7.23;4.60;;;;;;;;;;5020356;28;20828;-76
2023/12/09 16:26:10;;;;;;;8.40;4.80;;;;;;;;;;5019261;28;20465;-77
2023/12/09 16:28:37;;;;;;;8.80;5.00;;;;;;;;;;5023951;28;20925;-74
2023/12/09 16:31:03;;;;;;;9.20;5.40;;;;;;;;;;5022969;28;20437;-74
2023/12/09 16:33:29;;;;;;;7.63;5.13;;;;;;;;;;5027285;28;20436;-75
2023/12/09 16:35:55;;;;;;;8.60;4.70;;;;;;;;;;5021826;28;20521;-77
2023/12/09 16:38:21;;;;;;;7.90;4.20;;;;;;;;;;5025693;28;20422;-77
2023/12/09 16:40:47;;;;;;;9.50;5.03;;;;;;;;;;5023655;28;20437;-78
2023/12/09 16:43:13;;;;;;;11.33;5.53;;;;;;;;;;5021700;28;20781;-74
2023/12/09 16:45:39;;;;;;;7.07;5.33;;;;;;;;;;5017487;28;20461;-74
2023/12/09 16:48:06;;;;;;;9.30;4.70;;;;;;;;;;5023380;28;20469;-76
2023/12/09 16:50:35;;;;;;;7.93;4.93;;;;;;;;;;5024341;28;20436;-74
2023/12/09 16:53:03;;;;;;;9.10;5.13;;;;;;;;;;5018545;28;20428;-77
2023/12/09 16:55:29;;;;;;;11.47;5.30;;;;;;;;;;5018147;28;20406;-77
2023/12/09 16:57:55;;;;;;;9.17;4.60;;;;;;;;;;5017942;28;20406;-76
2023/12/09 17:00:22;;;;;;;6.03;3.90;;;;;;;;;;5018218;28;20513;-76
2023/12/09 17:02:48;;;;;;;9.07;5.10;;;;;;;;;;5019123;28;20417;-75
2023/12/09 17:05:14;;;;;;;7.30;4.30;;;;;;;;;;5016595;28;20483;-76
2023/12/09 17:07:41;;;;;;;10.67;4.70;;;;;;;;;;5018689;28;20410;-77
2023/12/09 17:10:08;;;;;;;9.43;4.40;;;;;;;;;;5015898;28;20464;-75
2023/12/09 17:12:34;;;;;;;5.20;3.27;;;;;;;;;;5014845;28;20422;-76
2023/12/09 17:15:00;;;;;;;10.30;4.17;;;;;;;;;;5014812;28;20427;-75
2023/12/09 17:17:26;;;;;;;5.30;3.57;;;;;;;;;;5015489;28;20777;-75
2023/12/09 17:19:52;;;;;;;6.13;3.43;;;;;;;;;;5015452;28;20418;-74
2023/12/09 17:22:18;;;;;;;5.20;3.40;;;;;;;;;;5016504;28;20470;-74
2023/12/09 17:24:44;;;;;;;9.13;3.73;;;;;;;;;;5017229;28;20971;-75
2023/12/09 17:27:10;;;;;;;7.17;3.50;;;;;;;;;;5017932;28;20548;-75
2023/12/09 17:29:36;;;;;;;6.90;3.40;;;;;;;;;;5017056;28;20414;-75
2023/12/09 17:32:03;;;;;;;6.20;3.63;;;;;;;;;;5015487;28;20448;-76
2023/12/09 17:34:30;;;;;;;6.10;3.50;;;;;;;;;;5013575;28;20418;-75
2023/12/09 17:36:56;;;;;;;6.70;3.40;;;;;;;;;;5013653;28;20836;-75
2023/12/09 17:39:22;;;;;;;7.77;3.30;;;;;;;;;;5014492;28;20422;-75
2023/12/09 17:41:48;;;;;;;6.60;3.90;;;;;;;;;;5014501;28;20484;-75
2023/12/09 17:44:14;;;;;;;5.40;3.00;;;;;;;;;;5014620;28;20913;-75
2023/12/09 17:46:41;;;;;;;4.77;3.00;;;;;;;;;;5015137;28;20456;-74
2023/12/09 17:49:08;;;;;;;8.20;3.60;;;;;;;;;;5014468;28;20426;-75
2023/12/09 17:51:34;;;;;;;3.53;2.20;;;;;;;;;;5014355;28;20446;-77
2023/12/09 17:54:01;;;;;;;6.30;3.70;;;;;;;;;;5014416;28;20453;-76
2023/12/09 17:56:28;;;;;;;5.33;3.33;;;;;;;;;;5014505;28;20414;-78
2023/12/09 17:58:54;;;;;;;6.50;3.10;;;;;;;;;;5014218;28;20444;-75
2023/12/09 18:01:26;;;;;;;5.40;2.80;;;;;;;;;;5014135;28;20818;-76
2023/12/09 18:03:52;;;;;;;5.90;3.23;;;;;;;;;;5014386;28;20948;-76
2023/12/09 18:06:18;;;;;;;5.47;3.03;;;;;;;;;;5013894;28;20462;-76
2023/12/09 18:08:44;;;;;;;4.60;2.80;;;;;;;;;;5013686;28;20538;-75
2023/12/09 18:11:11;;;;;;;6.20;3.13;;;;;;;;;;5013845;28;20433;-75
2023/12/09 18:16:06;;;;;;;7.50;3.10;;;;;;;;;;5032709;28;20559;-73
2023/12/09 18:18:32;;;;;;;6.97;2.70;;;;;;;;;;5033743;28;20412;-72
2023/12/09 18:20:58;;;;;;;7.00;2.80;;;;;;;;;;5032672;28;20761;-73
2023/12/09 18:23:24;;;;;;;4.70;3.37;;;;;;;;;;5033978;28;20408;-73
2023/12/09 18:25:51;;;;;;;10.87;2.83;;;;;;;;;;5033424;28;20985;-73
2023/12/09 18:28:17;;;;;;;4.20;2.80;;;;;;;;;;5033267;28;20896;-73
2023/12/09 18:30:43;;;;;;;7.20;3.23;;;;;;;;;;5032330;28;20507;-73
2023/12/09 18:33:10;;;;;;;5.43;2.60;;;;;;;;;;5033826;28;20931;-74
2023/12/09 18:35:35;;;;;;;4.23;3.30;;;;;;;;;;5033518;28;20450;-73
2023/12/09 18:38:02;;;;;;;3.43;2.67;;;;;;;;;;5033506;28;20405;-73
2023/12/09 18:40:28;;;;;;;4.93;2.67;;;;;;;;;;5033963;28;20459;-73
2023/12/09 18:42:54;;;;;;;4.03;2.30;;;;;;;;;;5038061;28;20413;-73
2023/12/09 18:45:20;;;;;;;3.60;2.57;;;;;;;;;;5034157;28;20468;-73
2023/12/09 18:47:47;;;;;;;5.80;2.77;;;;;;;;;;5033839;28;20409;-73
2023/12/09 18:50:13;;;;;;;3.80;2.60;;;;;;;;;;5033923;28;20429;-72
2023/12/09 18:52:39;;;;;;;4.43;2.77;;;;;;;;;;5034901;28;20409;-73
2023/12/09 18:55:06;;;;;;;3.17;2.60;;;;;;;;;;5034418;28;20433;-73
2023/12/09 18:57:32;;;;;;;3.80;2.30;;;;;;;;;;5033502;28;20857;-73
2023/12/09 19:00:01;;;;;;;3.87;2.30;;;;;;;;;;5034753;28;20417;-73
2023/12/09 19:02:27;;;;;;;3.43;2.50;;;;;;;;;;5034944;28;20409;-73
2023/12/09 19:04:53;;;;;;;11.40;2.73;;;;;;;;;;5032319;28;20835;-73
2023/12/09 19:07:19;;;;;;;5.83;3.70;;;;;;;;;;5033215;28;20413;-73
2023/12/09 19:09:45;;;;;;;4.30;3.43;;;;;;;;;;5032480;28;20401;-73
2023/12/09 19:12:11;;;;;;;5.33;3.50;;;;;;;;;;5032816;28;20881;-73
2023/12/09 19:14:37;;;;;;;5.13;3.10;;;;;;;;;;5032448;28;20448;-73
2023/12/09 19:17:04;;;;;;;6.20;3.30;;;;;;;;;;5032610;28;20783;-73
2023/12/09 19:19:32;;;;;;;9.03;3.40;;;;;;;;;;5032440;28;20754;-73
2023/12/09 19:21:58;;;;;;;11.93;3.77;;;;;;;;;;5031845;28;20432;-73
2023/12/09 19:24:25;;;;;;;6.23;4.23;;;;;;;;;;5036805;28;20429;-73
2023/12/09 19:26:51;;;;;;;5.00;3.57;;;;;;;;;;5034453;28;20796;-73
2023/12/09 19:29:18;;;;;;;19.50;9.87;;;;;;;;;;5032100;28;20405;-73
2023/12/09 19:31:45;;;;;;;6.77;3.97;;;;;;;;;;5031868;28;20416;-73
2023/12/09 19:34:12;;;;;;;10.77;5.20;;;;;;;;;;5032840;28;20827;-72
2023/12/09 19:36:38;;;;;;;5.10;2.90;;;;;;;;;;5031653;28;20422;-73
2023/12/09 19:39:04;;;;;;;4.77;2.90;;;;;;;;;;5032642;28;20419;-75
2023/12/09 19:41:30;;;;;;;10.37;5.30;;;;;;;;;;5033906;28;20861;-73
2023/12/09 19:43:56;;;;;;;20.83;7.70;;;;;;;;;;5033558;28;20480;-73
2023/12/09 19:46:22;;;;;;;14.43;5.57;;;;;;;;;;5032963;28;20461;-73
2023/12/09 19:48:48;;;;;;;8.60;4.53;;;;;;;;;;5032570;28;20413;-77
2023/12/09 19:51:14;;;;;;;3.00;2.60;;;;;;;;;;5034690;28;20409;-76
2023/12/09 19:53:40;;;;;;;8.47;4.50;;;;;;;;;;5034002;28;20420;-76
2023/12/09 19:56:07;;;;;;;6.67;3.60;;;;;;;;;;5033749;28;20776;-76
2023/12/09 19:58:33;;;;;;;5.27;3.90;;;;;;;;;;5033872;28;20443;-76
2023/12/09 20:01:00;;;;;;;15.80;5.90;;;;;;;;;;5034659;28;20413;-77
2023/12/09 20:03:26;;;;;;;6.57;3.90;;;;;;;;;;5036312;28;20412;-74
2023/12/09 20:05:52;;;;;;;17.50;5.40;;;;;;;;;;5047276;28;20465;-77
2023/12/09 20:08:19;;;;;;;14.70;6.70;;;;;;;;;;5043965;28;20401;-75
2023/12/09 20:10:45;;;;;;;5.40;3.63;;;;;;;;;;5043317;28;20900;-76
2023/12/09 20:13:11;;;;;;;5.00;3.77;;;;;;;;;;5038640;28;20514;-77
2023/12/09 20:15:37;;;;;;;3.93;2.60;;;;;;;;;;5034131;28;20456;-76
2023/12/09 20:18:04;;;;;;;14.33;5.07;;;;;;;;;;5037897;28;20417;-76
2023/12/09 20:20:30;;;;;;;13.93;5.80;;;;;;;;;;5040832;28;20444;-75
2023/12/09 20:22:58;;;;;;;9.17;4.30;;;;;;;;;;5036585;28;20401;-76
2023/12/09 20:25:24;;;;;;;5.37;2.70;;;;;;;;;;5035766;28;20886;-76
2023/12/09 20:27:51;;;;;;;12.53;3.77;;;;;;;;;;5034465;28;21023;-76
2023/12/09 20:30:17;;;;;;;8.00;3.60;;;;;;;;;;5033902;28;20440;-76
2023/12/09 20:32:43;;;;;;;3.60;2.53;;;;;;;;;;5034866;28;20413;-76
2023/12/09 20:35:10;;;;;;;4.30;3.10;;;;;;;;;;5034141;28;20928;-76
2023/12/09 20:37:36;;;;;;;3.40;2.43;;;;;;;;;;5035106;28;20475;-76